Time;durP1;ratioP1;P1;durP2;ratioP2;P2;SDS_P1;SDS_P2;PMS_P1;PMS_P2;Temp;Humidity;BMP_temperature;BMP_pressure;BME280_temperature;BME280_humidity;BME280_pressure;Samples;Min_cycle;Max_cycle;Signal;HPM_P1;HPM_P2
2022/06/11 00:00:13;;;;;;;9.10;3.72;;;18.70;99.90;;;;;;5055856;28;20808;-67
2022/06/11 00:02:39;;;;;;;6.80;3.03;;;17.30;99.90;;;;;;5055821;28;20383;-66
2022/06/11 00:05:06;;;;;;;6.85;2.50;;;17.40;99.90;;;;;;5055554;28;20086;-67
2022/06/11 00:07:32;;;;;;;12.93;2.75;;;17.10;99.90;;;;;;5055442;28;20039;-66
2022/06/11 00:09:58;;;;;;;9.48;1.98;;;17.20;99.90;;;;;;5036539;28;20547;-66
2022/06/11 00:12:25;;;;;;;8.18;2.45;;;18.50;99.90;;;;;;5041441;28;20033;-66
2022/06/11 00:14:51;;;;;;;7.15;2.00;;;19.00;99.90;;;;;;5068357;28;20033;-67
2022/06/11 00:17:19;;;;;;;5.15;2.10;;;16.80;99.90;;;;;;5038754;28;20033;-67
2022/06/11 00:19:45;;;;;;;9.35;2.13;;;16.90;99.90;;;;;;5055126;28;20502;-66
2022/06/11 00:22:12;;;;;;;8.90;2.13;;;17.00;99.90;;;;;;5047667;28;20041;-67
2022/06/11 00:24:38;;;;;;;5.05;1.63;;;16.80;99.90;;;;;;5032548;28;20040;-66
2022/06/11 00:27:05;;;;;;;8.52;2.33;;;18.00;99.90;;;;;;5038236;28;20100;-66
2022/06/11 00:29:33;;;;;;;7.43;2.72;;;17.00;99.90;;;;;;5055273;28;20101;-66
2022/06/11 00:31:59;;;;;;;4.90;1.90;;;16.80;99.90;;;;;;5054950;28;20036;-66
2022/06/11 00:34:25;;;;;;;8.73;2.40;;;16.70;99.90;;;;;;5038358;28;20044;-66
2022/06/11 00:36:52;;;;;;;5.85;1.92;;;16.70;99.90;;;;;;5024174;28;20047;-66
2022/06/11 00:39:23;;;;;;;7.32;1.92;;;16.60;99.90;;;;;;5046771;28;20045;-66
2022/06/11 00:41:53;;;;;;;6.80;2.20;;;16.70;99.90;;;;;;5038805;28;20057;-66
2022/06/11 00:44:20;;;;;;;9.57;1.95;;;16.30;99.90;;;;;;5072872;28;20090;-66
2022/06/11 00:46:53;;;;;;;8.40;2.22;;;16.50;99.90;;;;;;5059883;28;20399;-66
2022/06/11 00:49:42;;;;;;;9.07;2.47;;;16.50;99.90;;;;;;5029644;28;20040;-66
2022/06/11 00:52:19;;;;;;;9.35;2.28;;;16.40;99.90;;;;;;5048139;28;20060;-66
2022/06/11 00:54:54;;;;;;;9.57;2.00;;;18.20;99.90;;;;;;5024483;28;20049;-66
2022/06/11 00:57:20;;;;;;;9.20;2.63;;;16.40;99.90;;;;;;5041678;28;20037;-66
2022/06/11 00:59:55;;;;;;;9.18;3.15;;;16.40;99.90;;;;;;5032941;28;20041;-66
2022/06/11 01:02:22;;;;;;;10.18;1.67;;;16.30;99.90;;;;;;5039978;28;20040;-66
2022/06/11 01:04:48;;;;;;;8.48;2.55;;;17.40;99.90;;;;;;5072708;28;20044;-66
2022/06/11 01:07:35;;;;;;;10.65;2.17;;;16.20;99.90;;;;;;5054934;28;20048;-66
2022/06/11 01:10:12;;;;;;;6.20;2.20;;;16.60;99.90;;;;;;5054747;28;20463;-66
2022/06/11 01:12:57;;;;;;;10.35;1.95;;;16.30;99.90;;;;;;5072847;28;20119;-66
2022/06/11 01:15:33;;;;;;;5.80;1.67;;;18.40;99.90;;;;;;5013556;28;20051;-66
2022/06/11 01:18:38;;;;;;;8.15;2.03;;;16.20;99.90;;;;;;5037136;28;20514;-66
2022/06/11 01:21:25;;;;;;;7.15;2.10;;;16.30;99.90;;;;;;5046881;28;20049;-66
2022/06/11 01:24:18;;;;;;;7.60;2.50;;;16.40;99.90;;;;;;5029167;28;20041;-66
2022/06/11 01:27:09;;;;;;;9.57;2.35;;;16.50;99.90;;;;;;5053809;28;20048;-66
2022/06/11 01:29:46;;;;;;;11.05;1.92;;;16.30;99.90;;;;;;5054326;28;20041;-66
2022/06/11 01:32:15;;;;;;;5.25;2.45;;;16.30;99.90;;;;;;5028320;28;20048;-66
2022/06/11 01:35:17;;;;;;;6.32;2.72;;;15.90;99.90;;;;;;5039398;28;20045;-66
2022/06/11 01:38:04;;;;;;;16.88;2.72;;;16.20;99.90;;;;;;5033200;28;20079;-67
2022/06/11 01:40:35;;;;;;;5.63;2.10;;;16.10;99.90;;;;;;5032886;28;20044;-66
2022/06/11 01:43:24;;;;;;;6.70;2.92;;;16.20;99.90;;;;;;5039770;28;20049;-66
2022/06/11 01:45:50;;;;;;;7.55;1.83;;;;;;;;;;5021635;28;20120;-66
2022/06/11 01:48:21;;;;;;;10.25;2.95;;;16.00;99.90;;;;;;5038650;28;20049;-65
2022/06/11 01:50:58;;;;;;;5.22;2.17;;;16.00;99.90;;;;;;5036803;28;20094;-66
2022/06/11 01:53:23;;;;;;;8.32;2.10;;;16.00;99.90;;;;;;5054117;28;20028;-66
2022/06/11 01:56:01;;;;;;;7.53;2.33;;;16.00;99.90;;;;;;5053083;28;20052;-66
2022/06/11 01:58:36;;;;;;;6.97;2.28;;;17.00;99.90;;;;;;5032566;28;20045;-66
2022/06/11 02:01:26;;;;;;;7.80;2.25;;;15.90;99.90;;;;;;5051380;28;20479;-66
2022/06/11 02:03:58;;;;;;;7.32;2.88;;;15.90;99.90;;;;;;5034018;28;20041;-66
2022/06/11 02:06:44;;;;;;;8.30;2.40;;;16.00;99.90;;;;;;5033741;28;20048;-66
2022/06/11 02:09:22;;;;;;;11.15;2.55;;;16.10;99.90;;;;;;5033272;28;20052;-66
2022/06/11 02:11:52;;;;;;;7.03;2.28;;;15.90;99.90;;;;;;5034160;28;20127;-66
2022/06/11 02:14:44;;;;;;;9.55;3.28;;;15.80;99.90;;;;;;5035155;28;20048;-66
2022/06/11 02:17:18;;;;;;;9.32;2.95;;;15.70;99.90;;;;;;5036694;28;20102;-66
2022/06/11 02:19:54;;;;;;;11.47;3.60;;;15.90;99.90;;;;;;5043691;28;20518;-66
2022/06/11 02:22:40;;;;;;;12.00;3.53;;;15.70;99.90;;;;;;5021192;28;20841;-66
2022/06/11 02:25:19;;;;;;;8.98;3.22;;;15.60;99.90;;;;;;5037650;28;20437;-66
2022/06/11 02:27:47;;;;;;;9.95;3.75;;;15.60;99.90;;;;;;5023490;28;20045;-66
2022/06/11 02:30:18;;;;;;;14.85;4.65;;;15.50;99.90;;;;;;5037531;28;20048;-66
2022/06/11 02:32:44;;;;;;;13.93;3.67;;;15.50;99.90;;;;;;5036960;28;20086;-66
2022/06/11 02:35:12;;;;;;;10.55;3.83;;;15.70;99.90;;;;;;5055384;28;20037;-66
2022/06/11 02:37:42;;;;;;;15.93;4.00;;;15.60;99.90;;;;;;5036782;28;20048;-66
2022/06/11 02:40:17;;;;;;;10.05;3.45;;;15.30;99.90;;;;;;5037327;28;20049;-66
2022/06/11 02:42:43;;;;;;;9.27;4.68;;;;;;;;;;5055326;28;20107;-65
2022/06/11 02:45:12;;;;;;;11.85;4.10;;;15.40;99.90;;;;;;5037292;28;20048;-66
2022/06/11 02:47:43;;;;;;;12.88;3.83;;;15.40;99.90;;;;;;5037220;28;20398;-66
2022/06/11 02:50:15;;;;;;;9.77;3.88;;;15.30;99.90;;;;;;5054867;28;20033;-66
2022/06/11 02:52:41;;;;;;;13.50;5.05;;;15.10;99.90;;;;;;5037457;28;20071;-66
2022/06/11 02:55:09;;;;;;;10.98;4.13;;;;;;;;;;5032109;28;20038;-66
2022/06/11 02:57:35;;;;;;;10.05;3.90;;;15.20;99.90;;;;;;5024651;28;20049;-66
2022/06/11 03:00:02;;;;;;;13.43;4.78;;;15.10;99.90;;;;;;5053403;28;20100;-66
2022/06/11 03:02:28;;;;;;;13.65;4.10;;;15.20;99.90;;;;;;5020375;28;20115;-66
2022/06/11 03:04:54;;;;;;;12.65;4.63;;;15.10;99.90;;;;;;5036600;28;20563;-66
2022/06/11 03:07:20;;;;;;;9.55;4.85;;;17.00;99.90;;;;;;5054619;28;20509;-66
2022/06/11 03:09:46;;;;;;;9.90;4.43;;;15.20;99.90;;;;;;5037045;28;20089;-66
2022/06/11 03:12:14;;;;;;;11.95;4.10;;;15.10;99.90;;;;;;5020455;28;20451;-66
2022/06/11 03:14:41;;;;;;;11.30;4.13;;;15.00;99.90;;;;;;5036699;28;20043;-66
2022/06/11 03:17:08;;;;;;;11.45;3.92;;;15.00;99.90;;;;;;5020204;28;20045;-66
2022/06/11 03:19:34;;;;;;;12.07;4.00;;;15.00;99.90;;;;;;5036393;28;20083;-66
2022/06/11 03:22:00;;;;;;;11.07;3.45;;;;;;;;;;5036146;28;20064;-66
2022/06/11 03:24:27;;;;;;;16.55;3.78;;;15.10;99.90;;;;;;5054391;28;20045;-66
2022/06/11 03:26:54;;;;;;;10.05;3.63;;;15.00;99.90;;;;;;5053657;28;20368;-66
2022/06/11 03:29:21;;;;;;;7.60;4.10;;;15.00;99.90;;;;;;5031204;28;20103;-66
2022/06/11 03:31:47;;;;;;;12.13;4.10;;;15.10;99.90;;;;;;5046019;28;20045;-66
2022/06/11 03:34:14;;;;;;;8.20;3.70;;;15.10;99.90;;;;;;5019760;28;20028;-66
2022/06/11 03:36:40;;;;;;;14.57;4.43;;;;;;;;;;5054223;28;20043;-66
2022/06/11 03:39:06;;;;;;;15.50;4.10;;;15.00;99.90;;;;;;5053922;28;20057;-66
2022/06/11 03:41:32;;;;;;;13.48;4.63;;;14.90;99.90;;;;;;5036543;28;20380;-66
2022/06/11 03:43:58;;;;;;;13.52;4.68;;;15.00;99.90;;;;;;5054195;28;20040;-66
2022/06/11 03:46:24;;;;;;;10.15;5.03;;;;;;;;;;5053978;28;20036;-66
2022/06/11 03:48:51;;;;;;;11.93;4.57;;;15.00;99.90;;;;;;5020037;28;20094;-66
2022/06/11 03:51:18;;;;;;;15.02;5.28;;;15.00;99.90;;;;;;5035813;28;20041;-66
2022/06/11 03:53:45;;;;;;;11.65;5.43;;;14.90;99.90;;;;;;5019864;28;20037;-66
2022/06/11 03:56:13;;;;;;;12.05;5.40;;;15.00;99.90;;;;;;5035460;28;20037;-66
2022/06/11 03:58:40;;;;;;;16.10;7.20;;;15.00;99.90;;;;;;5036059;28;20036;-66
2022/06/11 04:01:16;;;;;;;14.65;5.97;;;16.20;99.90;;;;;;5039573;28;20041;-66
2022/06/11 04:04:04;;;;;;;13.05;6.30;;;15.00;99.90;;;;;;5035866;28;20079;-66
2022/06/11 04:06:40;;;;;;;18.02;6.10;;;15.00;99.90;;;;;;5053677;28;20044;-66
2022/06/11 04:09:10;;;;;;;15.23;5.50;;;15.10;99.90;;;;;;5022526;28;20056;-66
2022/06/11 04:11:36;;;;;;;12.57;5.32;;;15.00;99.90;;;;;;5053458;28;20403;-65
2022/06/11 04:14:02;;;;;;;16.88;5.82;;;15.00;99.90;;;;;;5035690;28;20041;-65
2022/06/11 04:20:11;;;;;;;13.25;5.30;;;15.10;99.90;;;;;;5045021;28;20418;-66
2022/06/11 04:22:36;;;;;;;16.27;4.82;;;14.90;99.90;;;;;;5039545;28;20029;-66
2022/06/11 04:25:02;;;;;;;10.38;4.82;;;15.30;99.90;;;;;;5053215;28;20094;-66
2022/06/11 04:27:28;;;;;;;14.35;4.90;;;15.10;99.90;;;;;;5053230;28;20033;-66
2022/06/11 04:29:56;;;;;;;12.55;5.72;;;15.10;99.90;;;;;;5053263;28;20434;-66
2022/06/11 04:32:23;;;;;;;12.10;5.20;;;15.10;99.90;;;;;;5035398;28;20040;-66
2022/06/11 04:34:49;;;;;;;16.60;6.43;;;15.20;99.90;;;;;;5035024;28;20045;-65
2022/06/11 04:37:18;;;;;;;12.05;5.97;;;15.30;99.90;;;;;;5052577;28;20049;-66
2022/06/11 04:39:46;;;;;;;18.40;5.57;;;15.20;99.90;;;;;;5053062;28;20052;-66
2022/06/11 04:42:12;;;;;;;11.45;5.60;;;15.20;99.90;;;;;;5048014;28;20037;-66
2022/06/11 04:44:42;;;;;;;12.65;5.97;;;15.40;99.90;;;;;;5043068;28;20514;-66
2022/06/11 04:47:11;;;;;;;14.57;5.28;;;15.40;99.90;;;;;;5026295;28;20411;-66
2022/06/11 04:49:37;;;;;;;12.95;4.40;;;15.40;99.90;;;;;;5031029;28;20487;-66
2022/06/11 04:52:04;;;;;;;15.13;4.32;;;15.40;99.90;;;;;;5048480;28;20037;-66
2022/06/11 04:54:30;;;;;;;14.18;4.13;;;;;;;;;;5030997;28;20562;-66
2022/06/11 04:56:56;;;;;;;10.52;3.63;;;15.80;99.90;;;;;;5047827;28;20053;-66
2022/06/11 04:59:22;;;;;;;17.05;4.43;;;16.20;99.90;;;;;;5045612;28;20040;-66
2022/06/11 05:01:48;;;;;;;14.60;4.07;;;16.50;99.90;;;;;;5044415;28;20033;-66
2022/06/11 05:04:14;;;;;;;13.05;3.17;;;16.80;99.90;;;;;;5044252;28;20056;-66
2022/06/11 05:06:42;;;;;;;19.88;5.35;;;17.10;99.90;;;;;;5043838;28;20057;-65
2022/06/11 05:09:11;;;;;;;16.17;3.38;;;17.40;99.90;;;;;;5027166;28;20052;-65
2022/06/11 05:11:37;;;;;;;13.10;4.13;;;17.40;99.90;;;;;;5033583;28;20041;-66
2022/06/11 05:14:03;;;;;;;11.60;3.72;;;17.70;99.90;;;;;;5020743;28;20041;-66
2022/06/11 05:16:29;;;;;;;15.75;3.50;;;17.80;99.90;;;;;;5022950;28;20045;-66
2022/06/11 05:18:55;;;;;;;14.23;3.40;;;18.00;99.90;;;;;;5030020;28;20044;-67
2022/06/11 05:21:21;;;;;;;20.80;4.38;;;18.10;99.90;;;;;;5029515;28;20048;-66
2022/06/11 05:23:47;;;;;;;14.80;3.78;;;18.00;99.90;;;;;;5026147;28;20044;-66
2022/06/11 05:26:17;;;;;;;12.32;3.15;;;18.00;99.90;;;;;;5049409;28;20098;-66
2022/06/11 05:28:43;;;;;;;12.35;3.28;;;18.10;99.90;;;;;;5051344;28;20581;-66
2022/06/11 05:31:08;;;;;;;13.73;3.92;;;18.00;99.90;;;;;;5048624;28;20048;-66
2022/06/11 05:33:34;;;;;;;13.50;3.22;;;18.60;99.90;;;;;;5044569;28;20056;-66
2022/06/11 05:36:00;;;;;;;22.95;3.60;;;19.00;99.90;;;;;;5031922;28;20402;-66
2022/06/11 05:38:27;;;;;;;17.55;3.45;;;19.30;99.90;;;;;;5059082;28;20130;-66
2022/06/11 05:40:54;;;;;;;20.13;4.18;;;19.50;99.90;;;;;;5030793;28;20037;-66
2022/06/11 05:43:20;;;;;;;16.35;3.50;;;19.80;99.90;;;;;;5045725;28;20553;-66
2022/06/11 05:45:52;;;;;;;21.65;4.57;;;20.00;99.90;;;;;;5034781;28;20044;-66
2022/06/11 05:48:21;;;;;;;21.20;3.75;;;19.90;99.90;;;;;;5010418;28;20076;-66
2022/06/11 05:50:50;;;;;;;15.98;3.83;;;19.90;99.90;;;;;;5024305;28;20044;-66
2022/06/11 05:53:20;;;;;;;18.58;3.53;;;19.70;99.90;;;;;;5056700;28;20123;-66
2022/06/11 05:55:47;;;;;;;15.82;3.75;;;19.80;99.90;;;;;;5021636;28;20053;-66
2022/06/11 05:58:17;;;;;;;21.38;3.88;;;19.50;99.90;;;;;;5049833;28;20044;-66
2022/06/11 06:00:44;;;;;;;22.50;4.03;;;19.60;99.90;;;;;;5031972;28;20510;-66
2022/06/11 06:03:10;;;;;;;19.15;4.35;;;19.30;99.90;;;;;;5035731;28;20065;-66
2022/06/11 06:05:36;;;;;;;15.82;3.95;;;19.60;99.90;;;;;;5059491;28;20049;-66
2022/06/11 06:08:01;;;;;;;16.02;3.72;;;19.40;99.90;;;;;;5039768;28;20045;-66
2022/06/11 06:10:28;;;;;;;21.40;4.25;;;19.50;99.90;;;;;;5035568;28;20474;-67
2022/06/11 06:12:53;;;;;;;19.50;4.57;;;19.30;99.90;;;;;;5030751;28;20046;-66
2022/06/11 06:15:22;;;;;;;22.73;4.18;;;19.40;99.90;;;;;;5017018;28;20395;-67
2022/06/11 06:17:49;;;;;;;18.05;4.35;;;19.50;99.90;;;;;;5024635;28;20102;-66
2022/06/11 06:20:17;;;;;;;17.13;3.83;;;19.30;99.90;;;;;;5036830;28;20495;-66
2022/06/11 06:22:43;;;;;;;19.27;3.58;;;19.30;99.90;;;;;;5018203;28;20080;-66
2022/06/11 06:25:14;;;;;;;19.40;3.90;;;19.50;99.90;;;;;;5017184;28;20521;-66
2022/06/11 06:27:39;;;;;;;13.70;3.17;;;19.50;99.90;;;;;;5014865;28;20402;-66
2022/06/11 06:30:05;;;;;;;18.50;3.05;;;19.90;99.90;;;;;;5030888;28;20055;-67
2022/06/11 06:32:31;;;;;;;25.65;4.53;;;20.20;99.90;;;;;;5021107;28;20041;-66
2022/06/11 06:34:56;;;;;;;16.77;4.45;;;19.80;99.90;;;;;;5039505;28;20041;-68
2022/06/11 06:37:22;;;;;;;17.95;3.65;;;22.40;99.90;;;;;;5030724;28;20037;-66
2022/06/11 06:39:48;;;;;;;20.38;4.60;;;20.00;99.90;;;;;;5042541;28;20115;-66
2022/06/11 06:42:14;;;;;;;25.20;4.97;;;19.90;99.90;;;;;;5034296;28;20033;-67
2022/06/11 06:44:39;;;;;;;20.25;4.45;;;19.80;99.90;;;;;;5035567;28;20051;-67
2022/06/11 06:47:05;;;;;;;21.80;3.85;;;19.40;99.90;;;;;;5017294;28;20444;-65
2022/06/11 06:49:31;;;;;;;24.85;5.30;;;19.30;99.90;;;;;;5014271;28;20112;-66
2022/06/11 06:51:56;;;;;;;17.10;4.65;;;19.40;99.90;;;;;;5013243;28;20052;-66
2022/06/11 06:54:22;;;;;;;18.90;4.60;;;19.30;99.90;;;;;;5049854;28;20041;-66
2022/06/11 06:56:48;;;;;;;25.50;4.15;;;19.30;99.90;;;;;;5030842;28;20052;-65
2022/06/11 06:59:13;;;;;;;21.67;4.38;;;19.60;99.90;;;;;;5050197;28;20180;-68
2022/06/11 07:01:39;;;;;;;22.58;4.07;;;19.40;99.90;;;;;;5045580;28;20084;-67
2022/06/11 07:04:05;;;;;;;22.70;4.18;;;19.30;99.90;;;;;;5028806;28;20080;-68
2022/06/11 07:06:34;;;;;;;20.13;4.45;;;19.50;99.90;;;;;;5025221;28;20041;-68
2022/06/11 07:09:00;;;;;;;23.00;6.03;;;19.40;99.90;;;;;;5037930;28;20406;-68
2022/06/11 07:11:26;;;;;;;23.98;4.80;;;19.40;99.90;;;;;;5004778;28;20095;-68
2022/06/11 07:13:51;;;;;;;33.60;4.85;;;19.40;99.90;;;;;;5051177;28;20041;-68
2022/06/11 07:16:22;;;;;;;26.38;4.57;;;19.10;99.90;;;;;;5053035;28;20087;-67
2022/06/11 07:18:52;;;;;;;25.48;4.28;;;19.20;99.90;;;;;;5053249;28;20120;-65
2022/06/11 07:21:21;;;;;;;22.02;4.10;;;19.20;99.90;;;;;;5030159;28;20399;-66
2022/06/11 07:24:10;;;;;;;21.30;4.40;;;19.20;99.90;;;;;;5022570;28;20073;-66
2022/06/11 07:26:41;;;;;;;18.50;3.92;;;19.30;99.90;;;;;;5041973;28;20212;-66
2022/06/11 07:29:11;;;;;;;18.80;4.50;;;19.30;99.90;;;;;;5033214;28;20033;-66
2022/06/11 07:31:38;;;;;;;23.55;4.22;;;19.30;99.90;;;;;;5038173;28;20482;-66
2022/06/11 07:34:05;;;;;;;24.83;4.47;;;19.30;99.90;;;;;;5003685;28;20049;-66
2022/06/11 07:36:31;;;;;;;43.20;5.28;;;19.30;99.90;;;;;;5016292;28;20056;-67
2022/06/11 07:38:57;;;;;;;20.83;3.78;;;19.40;99.90;;;;;;5032451;28;20119;-68
2022/06/11 07:41:23;;;;;;;20.08;6.20;;;19.50;99.90;;;;;;5012454;28;20549;-67
2022/06/11 07:43:48;;;;;;;21.85;5.10;;;19.50;99.90;;;;;;5039193;28;20041;-65
2022/06/11 07:46:14;;;;;;;18.90;5.22;;;19.50;99.90;;;;;;5032230;28;20041;-67
2022/06/11 07:48:41;;;;;;;20.83;5.20;;;20.70;99.90;;;;;;5026417;28;20106;-67
2022/06/11 07:51:06;;;;;;;17.17;3.35;;;19.20;99.90;;;;;;5030284;28;20045;-67
2022/06/11 07:53:32;;;;;;;22.15;4.72;;;19.40;99.90;;;;;;5030956;28;20052;-68
2022/06/11 07:55:58;;;;;;;14.88;3.90;;;19.40;99.90;;;;;;5059588;28;20064;-66
2022/06/11 07:58:27;;;;;;;22.98;5.00;;;19.40;99.90;;;;;;5038332;28;20036;-66
2022/06/11 08:00:53;;;;;;;24.73;4.60;;;19.40;99.90;;;;;;5062628;28;20174;-67
2022/06/11 08:03:20;;;;;;;16.85;3.50;;;19.40;99.90;;;;;;5045868;28;20041;-66
2022/06/11 08:05:47;;;;;;;16.40;3.63;;;19.40;99.90;;;;;;5052055;28;20445;-67
2022/06/11 08:08:13;;;;;;;28.48;6.30;;;19.60;99.90;;;;;;5048381;28;20605;-65
2022/06/11 08:10:41;;;;;;;17.30;3.42;;;19.60;99.90;;;;;;5025678;28;20056;-66
2022/06/11 08:13:07;;;;;;;21.88;5.43;;;19.60;99.90;;;;;;5042020;28;20103;-65
2022/06/11 08:15:34;;;;;;;19.00;3.63;;;19.50;99.90;;;;;;5035528;28;20068;-67
2022/06/11 08:18:00;;;;;;;20.83;5.03;;;19.70;99.90;;;;;;5048654;28;20040;-67
2022/06/11 08:20:29;;;;;;;18.58;4.63;;;19.40;99.90;;;;;;5048420;28;20517;-67
2022/06/11 08:22:55;;;;;;;17.70;3.70;;;19.50;99.90;;;;;;5048878;28;20053;-66
2022/06/11 08:25:22;;;;;;;27.70;5.57;;;19.50;99.90;;;;;;5035455;28;20095;-68
2022/06/11 08:27:48;;;;;;;18.27;4.28;;;19.40;99.90;;;;;;5029322;28;20045;-66
2022/06/11 08:30:16;;;;;;;21.70;3.67;;;19.70;99.90;;;;;;5012805;28;20041;-67
2022/06/11 08:32:42;;;;;;;17.88;4.25;;;19.70;99.90;;;;;;5019969;28;20044;-68
2022/06/11 08:35:09;;;;;;;15.75;3.60;;;19.70;99.90;;;;;;5033613;28;20032;-65
2022/06/11 08:37:36;;;;;;;25.73;3.90;;;19.90;99.90;;;;;;5061046;28;20040;-66
2022/06/11 08:40:06;;;;;;;17.58;4.05;;;19.60;99.90;;;;;;5055201;28;20126;-68
2022/06/11 08:42:38;;;;;;;17.10;3.20;;;19.80;99.90;;;;;;5051901;28;20033;-67
2022/06/11 08:45:25;;;;;;;17.00;3.10;;;19.50;99.90;;;;;;5029043;28;20055;-67
2022/06/11 08:48:06;;;;;;;14.60;2.92;;;19.70;99.90;;;;;;5040961;28;20041;-67
2022/06/11 08:50:36;;;;;;;15.70;2.63;;;19.70;99.90;;;;;;5051506;28;20033;-66
2022/06/11 08:53:04;;;;;;;14.95;2.92;;;19.70;99.90;;;;;;5029667;28;20546;-67
2022/06/11 08:55:34;;;;;;;13.93;2.80;;;19.60;99.90;;;;;;5032774;28;20030;-66
2022/06/11 08:58:39;;;;;;;19.10;3.80;;;19.80;99.90;;;;;;5031529;28;20033;-67
2022/06/11 09:01:16;;;;;;;17.65;3.20;;;19.90;99.90;;;;;;4986499;28;20064;-66
2022/06/11 09:04:19;;;;;;;17.38;3.00;;;19.60;99.90;;;;;;5051262;28;20560;-67
2022/06/11 09:06:59;;;;;;;14.95;3.22;;;20.00;99.90;;;;;;5050695;28;20458;-67
2022/06/11 09:09:45;;;;;;;25.88;5.70;;;19.90;99.90;;;;;;5042142;28;20194;-66
2022/06/11 09:12:31;;;;;;;12.13;2.92;;;19.80;99.90;;;;;;5048798;28;20040;-65
2022/06/11 09:15:28;;;;;;;11.82;3.63;;;20.10;99.90;;;;;;5032964;28;20513;-65
2022/06/11 09:18:13;;;;;;;14.35;3.20;;;19.90;99.90;;;;;;5030120;28;20048;-65
2022/06/11 09:21:10;;;;;;;15.98;3.72;;;20.10;99.90;;;;;;5030645;28;20124;-66
2022/06/11 09:23:58;;;;;;;21.13;4.07;;;20.00;99.90;;;;;;5045235;28;20048;-69
2022/06/11 09:26:46;;;;;;;16.50;3.38;;;20.30;99.90;;;;;;5032729;28;20093;-66
2022/06/11 09:29:55;;;;;;;15.05;3.30;;;20.20;99.90;;;;;;5032863;28;20084;-67
2022/06/11 09:32:30;;;;;;;13.60;3.03;;;20.40;99.90;;;;;;5012372;28;20064;-68
2022/06/11 09:35:08;;;;;;;14.35;3.08;;;20.30;99.90;;;;;;5032748;28;20044;-67
2022/06/11 09:37:47;;;;;;;17.13;2.85;;;20.30;99.90;;;;;;5055873;28;20040;-67
2022/06/11 09:40:34;;;;;;;10.20;2.20;;;20.60;99.90;;;;;;5032586;28;20412;-65
2022/06/11 09:43:34;;;;;;;11.60;2.40;;;20.60;99.90;;;;;;5034560;28;20487;-67
2022/06/11 09:46:16;;;;;;;17.55;2.72;;;20.80;99.90;;;;;;5031752;28;20141;-67
2022/06/11 09:48:56;;;;;;;19.08;2.58;;;20.60;99.90;;;;;;5050421;28;20502;-68
2022/06/11 09:51:37;;;;;;;13.15;2.67;;;20.80;99.90;;;;;;5050829;28;20503;-68
2022/06/11 09:54:28;;;;;;;19.25;2.85;;;20.80;99.90;;;;;;5033018;28;20678;-67
2022/06/11 09:57:14;;;;;;;14.90;2.97;;;20.80;99.90;;;;;;5043470;28;20109;-68
2022/06/11 09:59:45;;;;;;;14.05;2.95;;;20.90;99.90;;;;;;5047719;28;20087;-67
2022/06/11 10:02:21;;;;;;;19.45;3.50;;;20.90;99.90;;;;;;5032437;28;20048;-68
2022/06/11 10:04:48;;;;;;;12.52;2.42;;;20.90;99.90;;;;;;5050459;28;20091;-67
2022/06/11 10:07:16;;;;;;;12.15;2.42;;;21.00;99.90;;;;;;5028826;28;20049;-67
2022/06/11 10:09:48;;;;;;;16.38;3.20;;;21.00;99.90;;;;;;5050050;28;20530;-68
2022/06/11 10:12:17;;;;;;;11.60;3.28;;;20.80;99.90;;;;;;5050165;28;20073;-68
2022/06/11 10:15:02;;;;;;;18.20;3.13;;;22.20;99.90;;;;;;5032218;28;20040;-68
2022/06/11 10:17:50;;;;;;;13.25;3.03;;;21.20;99.90;;;;;;5049687;28;20040;-67
2022/06/11 10:20:31;;;;;;;16.17;2.90;;;21.10;99.90;;;;;;5040116;28;20067;-67
2022/06/11 10:23:02;;;;;;;13.10;2.88;;;21.30;99.90;;;;;;5015880;28;20051;-68
2022/06/11 10:25:35;;;;;;;13.60;2.45;;;21.30;99.90;;;;;;5032319;28;20080;-69
2022/06/11 10:28:13;;;;;;;18.25;2.85;;;21.10;99.90;;;;;;5032334;28;20036;-68
2022/06/11 10:30:48;;;;;;;17.60;2.85;;;21.00;99.90;;;;;;5036889;28;20048;-69
2022/06/11 10:33:21;;;;;;;17.10;3.25;;;21.20;99.90;;;;;;5032364;28;20091;-69
2022/06/11 10:36:03;;;;;;;17.08;3.00;;;21.30;99.90;;;;;;5052862;28;20394;-67
2022/06/11 10:38:45;;;;;;;16.98;2.72;;;21.10;99.90;;;;;;5049329;28;20052;-68
2022/06/11 10:41:21;;;;;;;14.75;2.38;;;21.30;99.90;;;;;;5035705;28;20116;-68
2022/06/11 10:43:55;;;;;;;13.68;2.90;;;21.10;99.90;;;;;;5057951;28;20045;-68
2022/06/11 10:46:21;;;;;;;13.40;2.50;;;21.20;99.90;;;;;;5053356;28;20052;-68
2022/06/11 10:48:47;;;;;;;12.70;2.85;;;21.40;99.90;;;;;;5035652;28;20415;-67
2022/06/11 10:51:20;;;;;;;17.15;2.55;;;21.00;99.90;;;;;;5035405;28;20593;-68
2022/06/11 10:54:01;;;;;;;13.98;2.67;;;21.20;99.90;;;;;;5026410;28;20056;-68
2022/06/11 10:56:39;;;;;;;13.95;2.47;;;21.20;99.90;;;;;;5016418;28;20057;-68
2022/06/11 10:59:24;;;;;;;13.82;2.30;;;21.30;99.90;;;;;;5027883;28;20487;-68
2022/06/11 11:01:54;;;;;;;;;;;21.50;99.90;;;;;;5036679;28;20045;-66
2022/06/11 11:04:40;;;;;;;10.05;1.90;;;21.20;99.90;;;;;;5035144;28;19971;-66
2022/06/11 11:07:12;;;;;;;11.45;2.72;;;21.00;99.90;;;;;;5048087;28;20499;-66
2022/06/11 11:09:38;;;;;;;8.48;2.25;;;21.00;99.90;;;;;;5033929;28;20041;-66
2022/06/11 11:12:07;;;;;;;12.38;2.38;;;21.10;99.90;;;;;;5048728;28;20040;-66
2022/06/11 11:14:41;;;;;;;12.98;2.78;;;21.20;99.90;;;;;;5034269;28;20487;-66
2022/06/11 11:17:22;;;;;;;16.83;2.50;;;21.10;99.90;;;;;;5037882;28;20049;-66
2022/06/11 11:22:40;;;;;;;14.88;2.45;;;21.30;99.90;;;;;;5016264;28;20426;-65
2022/06/11 11:25:15;;;;;;;15.02;3.17;;;21.20;99.90;;;;;;5035955;28;20034;-66
2022/06/11 11:27:46;;;;;;;15.73;2.97;;;21.20;99.90;;;;;;5041810;28;20041;-67
2022/06/11 11:30:15;;;;;;;11.93;2.63;;;20.90;99.90;;;;;;5030606;28;20045;-66
2022/06/11 11:32:42;;;;;;;13.40;2.70;;;21.90;99.90;;;;;;5042721;28;20038;-67
2022/06/11 11:35:16;;;;;;;14.02;2.30;;;21.00;99.90;;;;;;5021055;28;20049;-66
2022/06/11 11:37:43;;;;;;;11.52;2.28;;;21.00;99.90;;;;;;5003811;28;1036896;-66
2022/06/11 11:40:28;;;;;;;12.00;2.33;;;21.10;99.90;;;;;;5054531;28;20041;-67
2022/06/11 11:43:02;;;;;;;15.23;2.83;;;21.20;99.90;;;;;;5065563;28;20155;-67
2022/06/11 11:45:47;;;;;;;14.07;3.67;;;21.20;99.90;;;;;;5045666;28;20051;-67
2022/06/11 11:48:35;;;;;;;16.20;2.90;;;21.30;99.90;;;;;;5022194;28;20185;-66
2022/06/11 11:51:17;;;;;;;14.00;2.28;;;21.10;99.90;;;;;;5019136;28;20049;-68
2022/06/11 11:53:47;;;;;;;17.63;2.80;;;21.40;99.90;;;;;;5025083;28;20045;-67
2022/06/11 11:56:28;;;;;;;10.95;1.95;;;21.50;99.90;;;;;;5020095;28;20042;-68
2022/06/11 11:58:59;;;;;;;16.05;3.15;;;21.30;99.90;;;;;;5023213;28;20037;-66
2022/06/11 12:01:27;;;;;;;10.50;2.33;;;21.50;99.90;;;;;;5054213;28;20544;-67
2022/06/11 12:04:05;;;;;;;14.50;2.92;;;21.50;99.90;;;;;;5037215;28;20034;-67
2022/06/11 12:06:43;;;;;;;9.07;2.25;;;21.60;99.90;;;;;;5023572;28;20095;-67
2022/06/11 12:09:26;;;;;;;16.75;2.97;;;21.70;99.90;;;;;;5037001;28;20040;-67
2022/06/11 12:11:59;;;;;;;10.15;2.20;;;21.80;99.90;;;;;;5048170;28;20045;-66
2022/06/11 12:14:32;;;;;;;12.73;3.08;;;21.60;99.90;;;;;;5021139;28;20061;-68
2022/06/11 12:17:25;;;;;;;13.88;2.50;;;21.50;99.90;;;;;;5046356;28;20625;-67
2022/06/11 12:19:58;;;;;;;10.50;2.05;;;21.60;99.90;;;;;;5028235;28;20418;-67
2022/06/11 12:22:47;;;;;;;12.07;3.72;;;21.70;99.90;;;;;;5046060;28;20044;-66
2022/06/11 12:25:47;;;;;;;15.05;2.67;;;21.50;99.90;;;;;;5011107;28;20159;-67
2022/06/11 12:28:15;;;;;;;9.27;2.83;;;21.70;99.90;;;;;;5020726;28;20045;-66
2022/06/11 12:30:41;;;;;;;12.45;2.40;;;21.50;99.90;;;;;;5044717;28;20045;-67
2022/06/11 12:33:12;;;;;;;13.20;2.65;;;21.40;99.90;;;;;;5022014;28;20052;-70
2022/06/11 12:35:47;;;;;;;12.82;2.30;;;21.70;99.90;;;;;;5006018;28;20045;-69
2022/06/11 12:38:22;;;;;;;14.25;2.83;;;21.40;99.90;;;;;;5005739;28;20123;-66
2022/06/11 12:41:03;;;;;;;13.38;2.30;;;21.60;99.90;;;;;;5015403;28;20045;-67
2022/06/11 12:44:09;;;;;;;14.80;3.58;;;21.80;99.90;;;;;;5038664;28;20041;-68
2022/06/11 12:46:38;;;;;;;;;;;21.60;99.90;;;;;;5036204;28;20064;-67
2022/06/11 12:49:32;;;;;;;10.00;2.78;;;21.50;99.90;;;;;;5038899;28;20021;-65
2022/06/11 12:52:13;;;;;;;11.23;2.40;;;21.80;99.90;;;;;;5022990;28;20124;-68
2022/06/11 12:55:16;;;;;;;16.60;4.03;;;22.20;99.90;;;;;;5044192;28;20071;-66
2022/06/11 12:58:10;;;;;;;14.70;2.92;;;21.80;99.90;;;;;;5042925;28;20043;-68
2022/06/11 13:00:54;;;;;;;15.70;2.75;;;21.70;99.90;;;;;;5017256;28;20139;-68
2022/06/11 13:03:48;;;;;;;12.18;2.35;;;20.20;99.90;;;;;;5024612;28;20045;-66
2022/06/11 13:06:55;;;;;;;15.43;3.03;;;21.60;99.90;;;;;;5043263;28;20052;-67
2022/06/11 13:09:34;;;;;;;14.80;2.78;;;21.40;99.90;;;;;;4926755;29;20039;-68
2022/06/11 13:12:17;;;;;;;12.88;3.35;;;21.90;99.90;;;;;;5029804;28;20059;-69
2022/06/11 13:14:58;;;;;;;12.48;2.25;;;21.80;99.90;;;;;;5043141;28;20114;-67